createdAt,value
2023-02-23T00:00:35.596Z,-3.65
2023-02-23T00:01:42.041Z,-3.65
2023-02-23T00:02:44.804Z,-3.75
2023-02-23T00:03:51.453Z,-3.78
2023-02-23T00:04:56.719Z,-3.66
2023-02-23T00:06:04.625Z,-3.82
2023-02-23T00:07:08.742Z,-3.85
2023-02-23T00:08:12.209Z,-4.01
2023-02-23T00:09:29.121Z,-3.97
2023-02-23T00:10:33.509Z,-3.98
2023-02-23T00:11:37.072Z,-3.93
2023-02-23T00:12:41.308Z,-3.93
2023-02-23T00:13:46.925Z,-4.09
2023-02-23T00:14:49.574Z,-4.18
2023-02-23T00:15:53.723Z,-4.12
2023-02-23T00:16:58.041Z,-4.16
2023-02-23T00:18:00.375Z,-4.16
2023-02-23T00:19:06.752Z,-4.16
2023-02-23T00:20:13.106Z,-4.19
2023-02-23T00:21:17.281Z,-4.16
2023-02-23T00:22:20.781Z,-4.18
2023-02-23T00:23:24.594Z,-4.18
2023-02-23T00:24:26.960Z,-4.13
2023-02-23T00:25:31.609Z,-4.14
2023-02-23T00:26:34.746Z,-4.23
2023-02-23T00:27:41.143Z,-4.27
2023-02-23T00:28:44.170Z,-4.23
2023-02-23T00:29:51.845Z,-4.23
2023-02-23T00:30:58.988Z,-4.17
2023-02-23T00:32:01.799Z,-4.22
2023-02-23T00:33:05.843Z,-4.30
2023-02-23T00:34:10.634Z,-4.28
2023-02-23T00:35:17.957Z,-4.38
2023-02-23T00:36:21.278Z,-4.34
2023-02-23T00:37:23.573Z,-4.30
2023-02-23T00:38:32.592Z,-4.37
2023-02-23T00:39:36.060Z,-4.30
2023-02-23T00:40:42.160Z,-4.44
2023-02-23T00:41:46.890Z,-4.43
2023-02-23T00:42:54.793Z,-4.40
2023-02-23T00:44:00.046Z,-4.49
2023-02-23T00:45:06.751Z,-4.42
2023-02-23T00:46:10.145Z,-4.41
2023-02-23T00:47:13.635Z,-4.40
2023-02-23T00:48:16.731Z,-4.56
2023-02-23T00:49:20.362Z,-4.51
2023-02-23T00:50:23.945Z,-4.51
2023-02-23T00:51:29.161Z,-4.50
2023-02-23T00:52:34.680Z,-4.46
2023-02-23T00:53:41.431Z,-4.42
2023-02-23T00:54:45.485Z,-4.51
2023-02-23T00:55:50.873Z,-4.39
2023-02-23T00:56:57.345Z,-4.40
2023-02-23T00:58:00.456Z,-4.43
2023-02-23T00:59:03.557Z,-4.41
2023-02-23T01:00:19.474Z,-4.54
2023-02-23T01:01:23.361Z,-4.54
2023-02-23T01:02:29.963Z,-4.57
2023-02-23T01:03:33.208Z,-4.62
2023-02-23T01:04:37.062Z,-4.62
2023-02-23T01:05:40.204Z,-4.55
2023-02-23T01:06:42.577Z,-4.51
2023-02-23T01:07:46.963Z,-4.51
2023-02-23T01:08:51.029Z,-4.53
2023-02-23T01:09:54.113Z,-4.57
2023-02-23T01:11:01.069Z,-4.53
2023-02-23T01:12:05.600Z,-4.56
2023-02-23T01:13:08.954Z,-4.67
2023-02-23T01:14:12.292Z,-4.70
2023-02-23T01:15:18.326Z,-4.64
2023-02-23T01:16:23.633Z,-4.68
2023-02-23T01:17:26.853Z,-4.70
2023-02-23T01:18:30.005Z,-4.74
2023-02-23T01:19:34.629Z,-4.75
2023-02-23T01:20:42.498Z,-4.78
2023-02-23T01:21:47.192Z,-4.74
2023-02-23T01:22:52.170Z,-4.67
2023-02-23T01:23:55.743Z,-4.66
2023-02-23T01:24:59.000Z,-4.65
2023-02-23T01:26:02.334Z,-4.63
2023-02-23T01:27:07.538Z,-4.63
2023-02-23T01:28:13.673Z,-4.66
2023-02-23T01:29:17.965Z,-4.65
2023-02-23T01:30:23.003Z,-4.70
2023-02-23T01:31:28.066Z,-4.77
2023-02-23T01:32:31.399Z,-4.82
2023-02-23T01:33:34.604Z,-4.74
2023-02-23T01:34:37.654Z,-4.74
2023-02-23T01:35:41.479Z,-4.76
2023-02-23T01:36:45.039Z,-4.71
2023-02-23T01:37:54.941Z,-4.70
2023-02-23T01:39:00.476Z,-4.69
2023-02-23T01:40:07.944Z,-4.69
2023-02-23T01:41:11.173Z,-4.75
2023-02-23T01:42:16.474Z,-4.70
2023-02-23T01:43:23.855Z,-4.71
2023-02-23T01:44:33.188Z,-4.66
2023-02-23T01:45:37.840Z,-4.74
2023-02-23T01:46:43.380Z,-4.65
2023-02-23T01:47:47.639Z,-4.64
2023-02-23T01:48:52.245Z,-4.65
2023-02-23T01:49:55.238Z,-4.71
2023-02-23T01:51:03.291Z,-4.83
2023-02-23T01:52:12.533Z,-4.79
2023-02-23T01:53:16.396Z,-4.82
2023-02-23T01:54:23.701Z,-4.87
2023-02-23T01:55:28.874Z,-4.93
2023-02-23T01:56:38.657Z,-4.94
2023-02-23T01:57:42.388Z,-4.98
2023-02-23T01:58:46.484Z,-4.98
2023-02-23T01:59:51.347Z,-5.01
2023-02-23T02:00:56.305Z,-4.98
2023-02-23T02:01:59.042Z,-4.94
2023-02-23T02:03:06.951Z,-4.89
2023-02-23T02:04:11.983Z,-4.83
2023-02-23T02:05:20.093Z,-4.81
2023-02-23T02:06:30.641Z,-4.79
2023-02-23T02:07:35.598Z,-4.77
2023-02-23T02:08:40.430Z,-4.77
2023-02-23T02:09:46.615Z,-4.73
2023-02-23T02:10:56.541Z,-4.78
2023-02-23T02:12:01.649Z,-4.74
2023-02-23T02:13:07.636Z,-4.76
2023-02-23T02:14:15.686Z,-4.80
2023-02-23T02:15:24.046Z,-4.76
2023-02-23T02:16:30.755Z,-4.72
2023-02-23T02:17:36.233Z,-4.81
2023-02-23T02:18:45.989Z,-4.86
2023-02-23T02:20:08.614Z,-4.80
2023-02-23T02:21:26.402Z,-4.80
2023-02-23T02:22:40.459Z,-4.88
2023-02-23T02:24:01.484Z,-4.86
2023-02-23T02:25:08.458Z,-4.94
2023-02-23T02:26:26.760Z,-4.98
2023-02-23T02:27:42.204Z,-4.96
2023-02-23T02:28:47.238Z,-4.94
2023-02-23T02:29:56.358Z,-4.94
2023-02-23T02:31:10.604Z,-4.87
2023-02-23T02:32:16.917Z,-4.89
2023-02-23T02:33:37.656Z,-4.90
2023-02-23T02:34:43.061Z,-4.89
2023-02-23T02:36:05.737Z,-4.91
2023-02-23T02:37:22.412Z,-4.92
2023-02-23T02:38:44.813Z,-4.97
2023-02-23T02:40:18.273Z,-5.05
2023-02-23T02:41:28.205Z,-5.13
2023-02-23T02:42:40.532Z,-5.09
2023-02-23T02:43:52.777Z,-5.18
2023-02-23T02:45:09.546Z,-5.15
2023-02-23T02:46:23.351Z,-5.11
2023-02-23T02:47:30.366Z,-5.04
2023-02-23T02:48:35.663Z,-5.18
2023-02-23T02:49:40.689Z,-5.15
2023-02-23T02:50:56.994Z,-5.04
2023-02-23T02:52:17.275Z,-5.11
2023-02-23T02:53:25.594Z,-5.19
2023-02-23T02:54:30.169Z,-5.20
2023-02-23T02:55:36.628Z,-5.17
2023-02-23T02:56:42.232Z,-5.15
2023-02-23T02:57:47.155Z,-5.19
2023-02-23T02:58:51.600Z,-5.21
2023-02-23T03:00:12.137Z,-5.21
2023-02-23T03:01:34.402Z,-5.14
2023-02-23T03:02:57.108Z,-5.15
2023-02-23T03:04:20.114Z,-5.23
2023-02-23T03:05:44.657Z,-5.21
2023-02-23T03:07:10.412Z,-5.21
2023-02-23T03:08:37.166Z,-5.17
2023-02-23T03:10:01.871Z,-5.26
2023-02-23T03:11:27.449Z,-5.30
2023-02-23T03:13:00.374Z,-5.24
2023-02-23T03:14:23.463Z,-5.22
2023-02-23T03:15:46.822Z,-5.25
2023-02-23T03:17:24.854Z,-5.28
2023-02-23T03:18:49.997Z,-5.19
2023-02-23T03:20:18.907Z,-5.21
2023-02-23T03:21:41.695Z,-5.17
2023-02-23T03:23:17.258Z,-5.16
2023-02-23T03:24:45.514Z,-5.22
2023-02-23T03:26:11.624Z,-5.36
2023-02-23T03:27:51.437Z,-5.38
2023-02-23T03:29:22.051Z,-5.27
2023-02-23T03:30:48.443Z,-5.33
2023-02-23T03:32:14.986Z,-5.26
2023-02-23T03:33:37.652Z,-5.23
2023-02-23T03:35:01.555Z,-5.28
2023-02-23T03:36:25.837Z,-5.42
2023-02-23T03:37:53.422Z,-5.43
2023-02-23T03:39:16.871Z,-5.39
2023-02-23T03:40:42.328Z,-5.39
2023-02-23T03:42:06.994Z,-5.37
2023-02-23T03:43:30.504Z,-5.44
2023-02-23T03:44:53.741Z,-5.41
2023-02-23T03:46:15.764Z,-5.43
2023-02-23T03:47:39.465Z,-5.46
2023-02-23T03:49:03.378Z,-5.47
2023-02-23T03:50:29.758Z,-5.47
2023-02-23T03:51:52.195Z,-5.45
2023-02-23T03:53:17.121Z,-5.50
2023-02-23T03:54:46.981Z,-5.49
2023-02-23T03:56:09.402Z,-5.54
2023-02-23T03:57:32.881Z,-5.57
2023-02-23T03:58:56.086Z,-5.52
2023-02-23T04:00:19.203Z,-5.04
2023-02-23T04:01:43.372Z,-4.83
2023-02-23T04:03:06.281Z,-4.78
2023-02-23T04:04:29.543Z,-4.78
2023-02-23T04:05:53.022Z,-4.74
2023-02-23T04:07:17.065Z,-4.75
2023-02-23T04:08:41.389Z,-4.72
2023-02-23T04:10:02.220Z,-4.78
2023-02-23T04:11:30.564Z,-4.81
2023-02-23T04:12:53.619Z,-4.91
2023-02-23T04:13:58.488Z,-4.85
2023-02-23T04:15:03.335Z,-4.80
2023-02-23T04:16:08.175Z,-4.92
2023-02-23T04:17:14.274Z,-5.36
2023-02-23T04:18:20.482Z,-5.48
2023-02-23T04:19:26.325Z,-5.61
2023-02-23T04:20:28.737Z,-5.58
2023-02-23T04:21:31.852Z,-5.63
2023-02-23T04:22:36.792Z,-5.69
2023-02-23T04:23:42.127Z,-5.64
2023-02-23T04:24:46.687Z,-5.66
2023-02-23T04:25:51.831Z,-5.72
2023-02-23T04:26:54.789Z,-5.77
2023-02-23T04:28:00.124Z,-5.78
2023-02-23T04:29:02.506Z,-5.76
2023-02-23T04:30:06.989Z,-5.72
2023-02-23T04:31:10.065Z,-5.72
2023-02-23T04:32:15.811Z,-5.77
2023-02-23T04:33:20.020Z,-5.83
2023-02-23T04:34:22.258Z,-5.77
2023-02-23T04:35:26.288Z,-5.78
2023-02-23T04:36:29.555Z,-5.78
2023-02-23T04:37:32.732Z,-5.76
2023-02-23T04:38:38.145Z,-5.76
2023-02-23T04:39:42.459Z,-5.74
2023-02-23T04:40:45.798Z,-5.72
2023-02-23T04:41:51.967Z,-5.78
2023-02-23T04:42:55.828Z,-5.67
2023-02-23T04:44:00.228Z,-5.66
2023-02-23T04:45:04.471Z,-5.69
2023-02-23T04:46:07.802Z,-5.65
2023-02-23T04:47:11.511Z,-5.65
2023-02-23T04:48:14.616Z,-5.71
2023-02-23T04:49:17.792Z,-5.77
2023-02-23T04:50:21.275Z,-5.73
2023-02-23T04:51:24.536Z,-5.78
2023-02-23T04:52:27.976Z,-5.90
2023-02-23T04:53:30.149Z,-5.82
2023-02-23T04:54:32.551Z,-5.76
2023-02-23T04:55:35.821Z,-5.74
2023-02-23T04:56:41.763Z,-5.74
2023-02-23T04:57:45.892Z,-5.68
2023-02-23T04:58:48.968Z,-5.72
2023-02-23T04:59:52.207Z,-5.74
2023-02-23T05:00:56.630Z,-5.70
2023-02-23T05:01:59.895Z,-5.80
2023-02-23T05:03:02.940Z,-5.68
2023-02-23T05:04:06.160Z,-5.58
2023-02-23T05:05:09.927Z,-5.64
2023-02-23T05:06:14.443Z,-5.61
2023-02-23T05:07:18.531Z,-5.61
2023-02-23T05:08:21.200Z,-5.62
2023-02-23T05:09:25.328Z,-5.54
2023-02-23T05:10:28.777Z,-5.49
2023-02-23T05:11:33.048Z,-5.46
2023-02-23T05:12:36.413Z,-5.53
2023-02-23T05:13:40.821Z,-5.52
2023-02-23T05:14:44.198Z,-5.57
2023-02-23T05:15:50.507Z,-5.57
2023-02-23T05:16:54.101Z,-5.54
2023-02-23T05:17:57.232Z,-5.55
2023-02-23T05:18:59.541Z,-5.47
2023-02-23T05:20:03.821Z,-5.44
2023-02-23T05:21:06.970Z,-5.40
2023-02-23T05:22:12.481Z,-5.43
2023-02-23T05:23:14.766Z,-5.41
2023-02-23T05:24:18.409Z,-5.44
2023-02-23T05:25:21.608Z,-5.42
2023-02-23T05:26:24.947Z,-5.42
2023-02-23T05:27:28.488Z,-5.33
2023-02-23T05:28:32.769Z,-5.21
2023-02-23T05:29:36.865Z,-5.18
2023-02-23T05:30:39.186Z,-5.21
2023-02-23T05:31:42.859Z,-5.04
2023-02-23T05:32:46.492Z,-4.66
2023-02-23T05:33:49.713Z,-4.49
2023-02-23T05:34:52.893Z,-4.36
2023-02-23T05:35:56.301Z,-4.40
2023-02-23T05:36:58.498Z,-4.61
2023-02-23T05:38:01.748Z,-4.72
2023-02-23T05:39:04.549Z,-4.70
2023-02-23T05:40:09.338Z,-4.77
2023-02-23T05:41:14.528Z,-4.77
2023-02-23T05:42:17.774Z,-4.46
2023-02-23T05:43:20.567Z,-4.29
2023-02-23T05:44:23.951Z,-4.02
2023-02-23T05:45:27.150Z,-3.78
2023-02-23T05:46:30.509Z,-3.51
2023-02-23T05:47:36.779Z,-3.64
2023-02-23T05:48:40.098Z,-3.69
2023-02-23T05:49:43.611Z,-3.86
2023-02-23T05:50:46.801Z,-3.89
2023-02-23T05:51:50.661Z,-3.65
2023-02-23T05:52:53.565Z,-3.28
2023-02-23T05:53:59.769Z,-2.85
2023-02-23T05:55:06.431Z,-2.77
2023-02-23T05:56:11.089Z,-2.75
2023-02-23T05:57:14.263Z,-2.45
2023-02-23T05:58:17.776Z,-2.61
2023-02-23T05:59:21.768Z,-2.86
2023-02-23T06:00:26.170Z,-3.12
2023-02-23T06:01:30.441Z,-3.16
2023-02-23T06:02:33.763Z,-3.08
2023-02-23T06:03:38.870Z,-3.12
2023-02-23T06:04:42.493Z,-3.29
2023-02-23T06:07:08.684Z,-3.48
2023-02-23T06:08:13.091Z,-3.46
2023-02-23T06:09:18.209Z,-3.23
2023-02-23T06:10:21.278Z,-2.76
2023-02-23T06:11:24.815Z,-2.79
2023-02-23T06:12:28.390Z,-2.94
2023-02-23T06:13:33.210Z,-3.03
2023-02-23T06:14:36.981Z,-3.17
2023-02-23T06:15:40.819Z,-3.31
2023-02-23T06:16:45.491Z,-3.39
2023-02-23T06:17:55.030Z,-3.46
2023-02-23T06:18:58.831Z,-3.60
2023-02-23T06:20:06.824Z,-3.48
2023-02-23T06:21:10.857Z,-3.40
2023-02-23T06:22:14.155Z,-3.37
2023-02-23T06:23:19.540Z,-3.31
2023-02-23T06:24:24.295Z,-3.01
2023-02-23T06:25:28.010Z,-2.87
2023-02-23T06:26:30.582Z,-2.79
2023-02-23T06:27:33.661Z,-2.66
2023-02-23T06:28:38.109Z,-2.22
2023-02-23T06:29:42.034Z,-1.96
2023-02-23T06:30:47.439Z,-2.14
2023-02-23T06:31:51.241Z,-2.52
2023-02-23T06:32:53.990Z,-2.74
2023-02-23T06:33:58.122Z,-2.86
2023-02-23T06:35:02.585Z,-2.76
2023-02-23T06:36:06.459Z,-2.55
2023-02-23T06:37:10.140Z,-2.36
2023-02-23T06:38:13.725Z,-2.29
2023-02-23T06:39:16.393Z,-2.18
2023-02-23T06:40:20.116Z,-1.84
2023-02-23T06:41:22.777Z,-1.53
2023-02-23T06:42:26.101Z,-1.44
2023-02-23T06:43:30.311Z,-0.95
2023-02-23T06:44:36.659Z,-1.00
2023-02-23T06:45:39.919Z,-1.13
2023-02-23T06:46:43.494Z,-0.79
2023-02-23T06:47:47.519Z,-0.98
2023-02-23T06:48:50.996Z,-1.34
2023-02-23T06:49:54.785Z,-1.57
2023-02-23T06:50:59.984Z,-1.75
2023-02-23T06:52:04.302Z,-1.38
2023-02-23T06:53:10.420Z,-1.33
2023-02-23T06:54:14.341Z,-1.29
2023-02-23T06:55:18.264Z,-1.46
2023-02-23T06:56:21.250Z,-1.51
2023-02-23T06:57:25.300Z,-1.54
2023-02-23T06:58:28.013Z,-1.28
2023-02-23T06:59:31.335Z,-0.72
2023-02-23T07:00:34.437Z,-0.97
2023-02-23T07:01:38.093Z,-0.74
2023-02-23T07:02:42.361Z,0.36
2023-02-23T07:03:45.575Z,1.03
2023-02-23T07:04:54.600Z,0.90
2023-02-23T07:06:00.298Z,0.93
2023-02-23T07:07:04.053Z,1.89
2023-02-23T07:08:07.433Z,2.04
2023-02-23T07:09:11.969Z,2.27
2023-02-23T07:10:14.954Z,2.77
2023-02-23T07:11:21.090Z,2.38
2023-02-23T07:12:26.549Z,2.71
2023-02-23T07:13:32.262Z,2.70
2023-02-23T07:14:37.646Z,3.11
2023-02-23T07:15:42.722Z,3.66
2023-02-23T07:16:46.037Z,4.10
2023-02-23T07:17:49.197Z,4.35
2023-02-23T07:18:51.977Z,3.59
2023-02-23T07:19:56.114Z,2.83
2023-02-23T07:20:58.679Z,3.16
2023-02-23T07:22:02.097Z,4.32
2023-02-23T07:23:04.428Z,5.24
2023-02-23T07:24:10.376Z,6.63
2023-02-23T07:25:13.218Z,8.01
2023-02-23T07:26:18.077Z,8.80
2023-02-23T07:27:22.628Z,8.63
2023-02-23T07:28:29.048Z,9.01
2023-02-23T07:29:34.844Z,9.87
2023-02-23T07:30:38.219Z,10.62
2023-02-23T07:31:41.943Z,11.91
2023-02-23T07:32:46.395Z,12.81
2023-02-23T07:33:58.894Z,13.65
2023-02-23T07:35:03.555Z,12.96
2023-02-23T07:36:06.837Z,12.15
2023-02-23T07:37:10.648Z,12.95
2023-02-23T07:38:14.075Z,13.00
2023-02-23T07:39:16.344Z,13.29
2023-02-23T07:40:20.153Z,13.22
2023-02-23T07:41:22.848Z,13.65
2023-02-23T07:42:26.523Z,14.36
2023-02-23T07:43:30.035Z,14.46
2023-02-23T07:44:33.280Z,13.69
2023-02-23T07:45:35.701Z,13.81
2023-02-23T07:46:40.237Z,13.58
2023-02-23T07:47:45.066Z,14.21
2023-02-23T07:48:48.510Z,14.49
2023-02-23T07:49:51.657Z,14.46
2023-02-23T07:50:55.306Z,12.76
2023-02-23T07:51:59.671Z,12.29
2023-02-23T07:53:03.559Z,12.81
2023-02-23T07:54:08.945Z,13.10
2023-02-23T07:55:12.060Z,13.66
2023-02-23T07:56:18.454Z,13.29
2023-02-23T07:57:22.459Z,13.70
2023-02-23T07:58:27.051Z,12.64
2023-02-23T07:59:30.337Z,12.36
2023-02-23T08:00:35.463Z,13.31
2023-02-23T08:01:38.923Z,13.19
2023-02-23T08:02:41.678Z,13.37
2023-02-23T08:03:46.757Z,12.44
2023-02-23T08:04:50.394Z,12.90
2023-02-23T08:05:53.033Z,12.97
2023-02-23T08:06:55.608Z,13.19
2023-02-23T08:08:00.272Z,13.83
2023-02-23T08:09:04.795Z,13.83
2023-02-23T08:10:08.515Z,13.54
2023-02-23T08:11:12.460Z,13.90
2023-02-23T08:12:16.108Z,13.43
2023-02-23T08:13:19.374Z,13.67
2023-02-23T08:14:24.624Z,13.45
2023-02-23T08:15:28.347Z,13.78
2023-02-23T08:16:34.089Z,13.38
2023-02-23T08:17:38.911Z,13.53
2023-02-23T08:18:42.329Z,13.58
2023-02-23T08:19:45.462Z,12.99
2023-02-23T08:20:49.101Z,13.91
2023-02-23T08:21:51.768Z,14.13
2023-02-23T08:22:56.945Z,14.12
2023-02-23T08:24:01.611Z,14.22
2023-02-23T08:25:07.460Z,14.52
2023-02-23T08:26:12.272Z,12.91
2023-02-23T08:27:15.780Z,13.84
2023-02-23T08:28:19.643Z,13.22
2023-02-23T08:29:21.964Z,13.51
2023-02-23T08:30:25.614Z,14.16
2023-02-23T08:31:29.124Z,14.03
2023-02-23T08:32:35.581Z,13.52
2023-02-23T08:33:40.673Z,13.48
2023-02-23T08:34:47.655Z,13.22
2023-02-23T08:35:51.016Z,12.75
2023-02-23T08:36:57.300Z,13.86
2023-02-23T08:38:00.766Z,14.47
2023-02-23T08:39:08.136Z,14.17
2023-02-23T08:40:15.841Z,13.27
2023-02-23T08:41:21.606Z,13.30
2023-02-23T08:42:25.231Z,12.80
2023-02-23T08:43:28.930Z,11.73
2023-02-23T08:44:32.541Z,11.40
2023-02-23T08:45:35.417Z,11.94
2023-02-23T08:46:37.762Z,12.00
2023-02-23T08:47:41.495Z,11.19
2023-02-23T08:48:45.935Z,11.30
2023-02-23T08:49:50.376Z,10.51
2023-02-23T08:51:00.345Z,10.06
2023-02-23T08:52:02.713Z,11.07
2023-02-23T08:53:05.056Z,11.20
2023-02-23T08:54:12.751Z,11.27
2023-02-23T08:55:18.352Z,11.36
2023-02-23T08:56:24.227Z,11.04
2023-02-23T08:57:29.668Z,10.59
2023-02-23T08:58:34.745Z,9.80
2023-02-23T08:59:39.777Z,8.99
2023-02-23T09:00:43.285Z,8.60
2023-02-23T09:01:47.020Z,8.65
2023-02-23T09:02:49.342Z,8.99
2023-02-23T09:03:52.966Z,8.97
2023-02-23T09:04:56.814Z,8.48
2023-02-23T09:06:02.166Z,7.28
2023-02-23T09:07:26.819Z,7.03
2023-02-23T09:08:29.428Z,6.55
2023-02-23T09:09:34.977Z,7.10
2023-02-23T09:10:39.656Z,7.19
2023-02-23T09:11:43.285Z,6.08
2023-02-23T09:12:46.801Z,5.72
2023-02-23T09:13:50.403Z,5.33
2023-02-23T09:14:54.661Z,4.87
2023-02-23T09:15:58.058Z,4.49
2023-02-23T09:17:01.446Z,4.60
2023-02-23T09:18:04.334Z,4.35
2023-02-23T09:19:07.730Z,4.37
2023-02-23T09:20:13.757Z,4.61
2023-02-23T09:21:25.807Z,4.71
2023-02-23T09:22:30.461Z,4.42
2023-02-23T09:23:36.074Z,4.21
2023-02-23T09:24:39.563Z,4.10
2023-02-23T09:25:45.478Z,3.82
2023-02-23T09:26:48.543Z,3.80
2023-02-23T09:27:53.303Z,3.70
2023-02-23T09:28:57.551Z,3.43
2023-02-23T09:30:00.950Z,3.27
2023-02-23T09:31:07.623Z,3.21
2023-02-23T09:32:12.202Z,3.67
2023-02-23T09:33:16.470Z,3.73
2023-02-23T09:34:20.505Z,3.73
2023-02-23T09:35:26.417Z,3.37
2023-02-23T09:36:30.667Z,3.09
2023-02-23T09:37:34.039Z,2.58
2023-02-23T09:38:36.301Z,3.13
2023-02-23T09:39:39.941Z,3.12
2023-02-23T09:40:50.270Z,3.07
2023-02-23T09:41:58.712Z,3.27
2023-02-23T09:43:18.624Z,3.24
2023-02-23T09:44:27.042Z,2.77
2023-02-23T09:45:34.309Z,3.10
2023-02-23T09:46:40.032Z,2.87
2023-02-23T09:47:45.073Z,2.83
2023-02-23T09:48:51.715Z,2.95
2023-02-23T09:49:57.393Z,2.61
2023-02-23T09:51:00.427Z,2.70
2023-02-23T09:52:03.921Z,2.55
2023-02-23T09:53:13.351Z,2.26
2023-02-23T09:54:18.405Z,2.34
2023-02-23T09:55:22.145Z,2.40
2023-02-23T09:56:27.954Z,2.22
2023-02-23T09:57:40.541Z,2.47
2023-02-23T09:58:44.042Z,2.47
2023-02-23T09:59:47.760Z,2.47
2023-02-23T10:00:54.086Z,2.46
2023-02-23T10:02:19.280Z,2.36
2023-02-23T10:03:36.284Z,2.35
2023-02-23T10:04:51.510Z,1.96
2023-02-23T10:06:01.969Z,2.40
2023-02-23T10:07:08.763Z,2.71
2023-02-23T10:08:30.313Z,2.74
2023-02-23T10:09:52.107Z,2.35
2023-02-23T10:10:58.211Z,2.06
2023-02-23T10:12:07.410Z,2.02
2023-02-23T10:13:20.265Z,2.07
2023-02-23T10:14:40.272Z,2.06
2023-02-23T10:15:56.322Z,1.97
2023-02-23T10:17:17.186Z,1.82
2023-02-23T10:18:45.796Z,1.97
2023-02-23T10:19:45.890Z,1.98
2023-02-23T10:20:57.063Z,2.25
2023-02-23T10:22:02.311Z,2.39
2023-02-23T10:23:07.471Z,2.41
2023-02-23T10:24:13.704Z,2.36
2023-02-23T10:25:19.093Z,2.08
2023-02-23T10:26:24.469Z,2.26
2023-02-23T10:27:29.566Z,2.36
2023-02-23T10:28:36.707Z,2.28
2023-02-23T10:29:41.045Z,2.12
2023-02-23T10:30:44.752Z,1.87
2023-02-23T10:31:50.144Z,2.03
2023-02-23T10:32:56.052Z,2.31
2023-02-23T10:34:00.280Z,2.36
2023-02-23T10:35:06.926Z,2.33
2023-02-23T10:36:14.217Z,2.28
2023-02-23T10:37:18.200Z,2.03
2023-02-23T10:38:20.775Z,1.63
2023-02-23T10:39:24.393Z,1.81
2023-02-23T10:40:32.605Z,1.75
2023-02-23T10:41:37.774Z,1.87
2023-02-23T10:42:41.075Z,1.79
2023-02-23T10:43:44.669Z,1.86
2023-02-23T10:44:46.931Z,1.99
2023-02-23T10:45:51.678Z,1.90
2023-02-23T10:47:05.369Z,2.05
2023-02-23T10:48:10.015Z,2.06
2023-02-23T10:49:14.623Z,1.78
2023-02-23T10:50:19.217Z,1.64
2023-02-23T10:51:24.358Z,1.84
2023-02-23T10:52:41.614Z,1.95
2023-02-23T10:53:40.876Z,1.85
2023-02-23T10:54:48.348Z,1.90
2023-02-23T10:56:02.517Z,1.93
2023-02-23T10:57:07.790Z,1.70
2023-02-23T10:58:18.816Z,1.70
2023-02-23T10:59:22.138Z,1.52
2023-02-23T11:00:31.415Z,1.55
2023-02-23T11:02:01.847Z,1.51
2023-02-23T11:02:49.545Z,1.52
2023-02-23T11:04:04.342Z,1.62
2023-02-23T11:04:59.373Z,1.58
2023-02-23T11:06:02.343Z,1.53
2023-02-23T11:07:23.408Z,1.58
2023-02-23T11:08:35.902Z,1.78
2023-02-23T11:09:47.117Z,1.67
2023-02-23T11:10:58.684Z,1.82
2023-02-23T11:12:08.124Z,1.82
2023-02-23T11:13:24.137Z,1.77
2023-02-23T11:14:28.857Z,1.73
2023-02-23T11:15:49.444Z,1.78
2023-02-23T11:16:39.774Z,1.79
2023-02-23T11:17:42.883Z,1.75
2023-02-23T11:19:02.908Z,1.97
2023-02-23T11:20:10.993Z,2.13
2023-02-23T11:21:16.281Z,2.07
2023-02-23T11:22:25.220Z,2.08
2023-02-23T11:23:34.260Z,2.28
2023-02-23T11:24:40.365Z,2.24
2023-02-23T11:25:47.480Z,2.28
2023-02-23T11:26:51.671Z,1.72
2023-02-23T11:27:56.896Z,1.79
2023-02-23T11:29:03.629Z,1.99
2023-02-23T11:30:06.767Z,2.02
2023-02-23T11:31:13.340Z,2.13
2023-02-23T11:32:31.227Z,1.97
2023-02-23T11:33:36.606Z,1.74
2023-02-23T11:34:44.103Z,1.50
2023-02-23T11:35:47.416Z,1.49
2023-02-23T11:37:05.754Z,1.29
2023-02-23T11:38:10.899Z,1.50
2023-02-23T11:39:18.884Z,1.69
2023-02-23T11:40:27.727Z,1.74
2023-02-23T11:41:32.961Z,1.81
2023-02-23T11:42:37.978Z,1.84
2023-02-23T11:43:43.256Z,1.80
2023-02-23T11:44:48.892Z,1.70
2023-02-23T11:45:55.325Z,1.68
2023-02-23T11:46:59.535Z,1.63
2023-02-23T11:48:04.999Z,1.42
2023-02-23T11:49:09.502Z,1.64
2023-02-23T11:50:23.399Z,1.76
2023-02-23T11:51:29.462Z,1.80
2023-02-23T11:52:34.691Z,1.89
2023-02-23T11:53:40.801Z,1.94
2023-02-23T11:54:48.392Z,1.86
2023-02-23T11:55:54.631Z,1.72
2023-02-23T11:56:58.636Z,1.78
2023-02-23T11:58:09.577Z,1.72
2023-02-23T11:59:20.217Z,1.78
2023-02-23T12:00:26.319Z,1.76
2023-02-23T12:01:36.680Z,1.72
2023-02-23T12:02:48.679Z,1.75
2023-02-23T12:03:56.551Z,1.71
2023-02-23T12:05:10.709Z,1.80
2023-02-23T12:06:17.307Z,1.71
2023-02-23T12:07:23.785Z,1.68
2023-02-23T12:08:30.535Z,1.58
2023-02-23T12:09:36.121Z,1.54
2023-02-23T12:10:44.127Z,1.47
2023-02-23T12:11:50.271Z,1.43
2023-02-23T12:12:54.765Z,1.36
2023-02-23T12:14:05.048Z,1.60
2023-02-23T12:15:13.426Z,1.67
2023-02-23T12:16:31.440Z,1.68
2023-02-23T12:17:37.182Z,1.63
2023-02-23T12:18:46.139Z,1.52
2023-02-23T12:19:52.453Z,1.65
2023-02-23T12:20:57.845Z,1.62
2023-02-23T12:22:07.084Z,1.74
2023-02-23T12:23:12.482Z,1.72
2023-02-23T12:24:17.029Z,1.63
2023-02-23T12:25:23.469Z,1.55
2023-02-23T12:26:28.307Z,1.64
2023-02-23T12:27:47.391Z,1.66
2023-02-23T12:28:52.654Z,1.56
2023-02-23T12:30:14.943Z,1.73
2023-02-23T12:31:41.785Z,1.69
2023-02-23T12:32:56.236Z,1.82
2023-02-23T12:34:02.822Z,1.78
2023-02-23T12:35:16.602Z,1.97
2023-02-23T12:36:40.801Z,1.84
2023-02-23T12:37:44.934Z,1.72
2023-02-23T12:38:51.808Z,1.64
2023-02-23T12:40:03.017Z,1.57
2023-02-23T12:41:13.770Z,1.69
2023-02-23T12:42:19.804Z,1.78
2023-02-23T12:43:31.041Z,1.81
2023-02-23T12:44:54.146Z,1.89
2023-02-23T12:46:01.386Z,1.77
2023-02-23T12:47:17.001Z,1.78
2023-02-23T12:48:31.253Z,1.84
2023-02-23T12:49:42.292Z,1.94
2023-02-23T12:50:53.013Z,2.11
2023-02-23T12:51:58.277Z,1.99
2023-02-23T12:53:14.726Z,2.15
2023-02-23T12:54:19.204Z,2.20
2023-02-23T12:55:25.401Z,2.24
2023-02-23T12:56:39.390Z,2.26
2023-02-23T12:57:50.797Z,2.13
2023-02-23T12:59:06.526Z,2.07
2023-02-23T13:00:32.718Z,1.92
2023-02-23T13:01:51.136Z,1.99
2023-02-23T13:02:56.413Z,1.87
2023-02-23T13:04:18.603Z,1.88
2023-02-23T13:05:26.392Z,1.63
2023-02-23T13:06:32.625Z,1.52
2023-02-23T13:07:49.201Z,1.58
2023-02-23T13:09:00.634Z,1.69
2023-02-23T13:10:23.980Z,1.78
2023-02-23T13:11:33.542Z,1.73
2023-02-23T13:12:44.685Z,1.63
2023-02-23T13:13:54.445Z,1.63
2023-02-23T13:15:10.386Z,1.45
2023-02-23T13:16:18.544Z,1.44
2023-02-23T13:17:26.118Z,1.46
2023-02-23T13:18:36.875Z,1.48
2023-02-23T13:19:45.081Z,1.52
2023-02-23T13:20:49.210Z,1.49
2023-02-23T13:21:56.164Z,1.51
2023-02-23T13:23:04.573Z,1.47
2023-02-23T13:24:21.064Z,1.60
2023-02-23T13:25:34.568Z,1.73
2023-02-23T13:26:43.296Z,1.61
2023-02-23T13:27:54.519Z,1.61
2023-02-23T13:29:09.942Z,1.62
2023-02-23T13:30:13.996Z,1.62
2023-02-23T13:31:19.441Z,1.65
2023-02-23T13:32:24.954Z,1.63
2023-02-23T13:33:43.679Z,1.79
2023-02-23T13:34:43.764Z,1.89
2023-02-23T13:35:47.487Z,1.91
2023-02-23T13:36:50.559Z,1.97
2023-02-23T13:38:02.974Z,1.87
2023-02-23T13:39:18.704Z,1.77
2023-02-23T13:40:23.012Z,1.58
2023-02-23T13:41:33.512Z,1.65
2023-02-23T13:42:42.138Z,1.75
2023-02-23T13:43:59.428Z,1.76
2023-02-23T13:45:04.915Z,1.53
2023-02-23T13:46:20.379Z,1.49
2023-02-23T13:47:49.424Z,1.37
2023-02-23T13:49:01.746Z,1.52
2023-02-23T13:50:06.812Z,1.56
2023-02-23T13:51:13.304Z,1.56
2023-02-23T13:52:23.027Z,1.63
2023-02-23T13:53:30.657Z,1.34
2023-02-23T13:54:36.880Z,1.41
2023-02-23T13:55:49.836Z,1.47
2023-02-23T13:56:55.191Z,1.44
2023-02-23T13:58:10.710Z,1.25
2023-02-23T13:59:18.991Z,1.34
2023-02-23T14:00:23.440Z,1.34
2023-02-23T14:01:33.242Z,1.37
2023-02-23T14:02:41.448Z,1.50
2023-02-23T14:03:49.399Z,1.55
2023-02-23T14:04:52.841Z,1.39
2023-02-23T14:05:59.647Z,1.46
2023-02-23T14:07:05.686Z,1.38
2023-02-23T14:08:12.238Z,1.38
2023-02-23T14:09:23.844Z,1.35
2023-02-23T14:10:29.971Z,1.42
2023-02-23T14:11:37.370Z,1.43
2023-02-23T14:12:42.936Z,1.37
2023-02-23T14:13:49.299Z,1.31
2023-02-23T14:14:53.715Z,1.39
2023-02-23T14:16:16.384Z,1.36
2023-02-23T14:17:21.716Z,1.44
2023-02-23T14:18:29.396Z,1.44
2023-02-23T14:19:35.710Z,1.29
2023-02-23T14:20:44.478Z,1.30
2023-02-23T14:21:54.288Z,1.27
2023-02-23T14:23:15.492Z,1.28
2023-02-23T14:24:25.152Z,1.36
2023-02-23T14:25:36.746Z,1.25
2023-02-23T14:26:48.676Z,1.25
2023-02-23T14:27:57.268Z,1.30
2023-02-23T14:29:17.368Z,1.23
2023-02-23T14:30:22.093Z,1.26
2023-02-23T14:31:27.245Z,1.24
2023-02-23T14:32:33.063Z,1.28
2023-02-23T14:33:50.359Z,1.27
2023-02-23T14:34:58.529Z,1.24
2023-02-23T14:36:05.563Z,1.14
2023-02-23T14:37:22.982Z,1.11
2023-02-23T14:38:45.675Z,1.14
2023-02-23T14:39:36.228Z,1.11
2023-02-23T14:40:41.027Z,1.11
2023-02-23T14:41:46.024Z,1.09
2023-02-23T14:42:53.157Z,0.96
2023-02-23T14:44:20.066Z,0.92
2023-02-23T14:45:24.999Z,0.98
2023-02-23T14:46:28.989Z,0.94
2023-02-23T14:47:36.107Z,0.91